Rubén Martínez

Olheiro - Málaga
4 Jun 2028
Domingo
Processo

Personalidade

Adaptabilidade (4) Ambição (15) Controvérsia (20) Lealdade (12) Pressão (14) Profissionalismo (18) Espírito Esportivo (1) Temperamento (19)

Perfil

Estilo de Treinamento Democrático
Licença Nacional A
Determinação 8
Gestão de Pessoas 7
Motivação 7
Disciplina 12
Satisfação no Trabalho
100%
Fadiga
0%
Função Olheiro
Salário 41.7K p/s
Contrato 14.03.2030

Desempenho

Comportamento Bom
Eficácia do Treinamento
54%
Desenvolvimento do Jogador
35%
Prevenção de Lesões
45%
Implementação Tática
55%

Eventos Recentes

Participou de uma reunião de recrutamento agora
Participou de uma reunião de recrutamento agora
Participou de uma reunião de recrutamento agora
Participou de uma reunião de recrutamento 7d atrás
Participou de uma reunião de recrutamento 7d atrás
Participou de uma reunião de recrutamento 7d atrás
Observou uma partida 7d atrás
Observou uma partida 14d atrás

Monitorando agora

175
Jogador Clube Status Habilidade Confiança Observado Última observação Último voto
Lucas Høgsberg RC Strasbourg Ativo 141 / 142 40% 4 02.06.2028 -
Finn Jeltsch VfB Stuttgart Ativo 143 / 148 40% 3 02.06.2028 -
Amine Boukamir Charleroi Ativo 102 / 113 40% 1 02.06.2028 -
Ayden Heaven Portsmouth Ativo 153 / 148 40% 5 31.05.2028 -
Andrey Ivlev Nizhniy Novgorod Ativo 110 / 125 40% 3 31.05.2028 -
Celías Ingenthron Platense Ativo 119 / 127 40% 1 31.05.2028 -
Germán Barbas Burgos Ativo 113 / 112 40% 4 09.05.2028 -
Olivier Leroux Mouscron Ativo 96 / 108 40% 2 09.05.2028 -
Tylel Tati Chamois Niortais Ativo 132 / 136 40% 1 09.05.2028 -
Tyler Fletcher Rotherham United Ativo 111 / 123 40% 4 08.05.2028 -
Trey Nyoni Rotherham United Ativo 143 / 143 40% 5 08.05.2028 -
Simone Suppa Virtus Verona Ativo 89 / 87 40% 1 08.05.2028 -
Honest Ahanor Atalanta Ativo 132 / 145 40% 11 06.05.2028 -
Salvador Blopá Sporting CP Ativo 127 / 123 40% 3 06.05.2028 -
Thulani Manyama SuperSport United Ativo 104 / 106 40% 2 06.05.2028 -
Riquelme Thompson-Jones Accrington Stanley Ativo 111 / 112 40% 2 05.05.2028 -
Andrija Bulatović Chamois Niortais Ativo 123 / 125 40% 2 05.05.2028 -
Konta Ismaily Ativo 99 / 106 40% 2 03.05.2028 -
Musa Danjuma Umraniyespor Ativo 91 / 111 40% 1 03.05.2028 -
Adnan Nainggolan KV Oostende Ativo 108 / 107 40% 3 02.05.2028 -
Itumeleng Jali Spezia Ativo 119 / 124 40% 2 02.05.2028 -
Josh Nichols Oldham Athletic Ativo 120 / 123 40% 8 01.05.2028 -
Lamine Bèye Portimonense Ativo 105 / 117 40% 1 01.05.2028 -
Josh King Newcastle United Ativo 137 / 143 40% 4 30.04.2028 -
Daniel Banjaqui Benfica Ativo 125 / 134 40% 2 28.04.2028 -
Pape Diong Westerlo Ativo 115 / 121 40% 2 28.04.2028 -
Vojislav Jokić OFK Beograd Ativo 108 / 111 40% 1 28.04.2028 -
Kamaldeen Atiemo Wa All Stars Ativo 95 / 106 40% 1 27.04.2028 -
Bongani Jali Free State Stars Ativo 110 / 101 40% 4 26.04.2028 -
Chris Rigg Sunderland Ativo 141 / 151 40% 2 26.04.2028 -
Jan Bürger Northampton Town Ativo 119 / 120 40% 3 25.04.2028 -
Dmytro Strilchuk Podillia Ativo 86 / 87 40% 2 24.04.2028 -
Abubakar Adams Aduana Stars Ativo 92 / 81 40% 1 21.04.2028 -
Nathan De Cat SC Freiburg Ativo 137 / 146 40% 1 21.04.2028 -
Hervin Goyes Deportivo Pasto Ativo 111 / 115 40% 1 20.04.2028 -
Tobiáš Pališčák Zlin Ativo 105 / 112 40% 1 19.04.2028 -
Jorge Moreno Athletic Bilbao Ativo 128 / 122 40% 1 17.04.2028 -
Josh Acheampong Everton Ativo 139 / 142 40% 1 17.04.2028 -
Vinícius Lira São Paulo Ativo 122 / 124 40% 3 15.04.2028 -
Matvey Bardachev Zenit Ativo 113 / 111 40% 1 13.04.2028 -
Adam Aznou Everton Ativo 133 / 136 40% 2 07.04.2028 -
Kiani Inge Groningen Ativo 111 / 114 40% 1 05.04.2028 -
Jorge Salinas Racing Santander Ativo 126 / 138 40% 2 03.04.2028 -
Ivan Giraldo Valencia Ativo 121 / 138 40% 1 08.03.2028 -
Martim Cunha Porto Ativo 101 / 115 40% 1 07.03.2028 -
Yury Oyarzo Racing Ativo 87 / 101 40% 4 17.01.2028 -
Giovanni Leoni Lincoln City Ativo 139 / 149 40% 1 17.01.2028 -
Zane Albarus Shrewsbury Town Ativo 96 / 98 40% 1 17.01.2028 -
Toni Fruk Talleres Ativo 132 / 133 66% 1 01.01.2028 -
Bitello Universidad de Chile Ativo 135 / 135 68% 1 01.01.2028 -
Victor Hernandez Santa Fe Ativo 125 / 121 40% 19 31.12.2027 -
Sebastián Ramírez Aguilas Doradas Ativo 102 / 111 40% 7 31.12.2027 -
Olaniyi Saheed Kwara United Ativo 97 / 87 40% 2 19.12.2027 -
Nazareno Roselli Defensa y Justicia Ativo 117 / 113 40% 4 19.12.2027 -
Colin Guske Orlando City Ativo 105 / 95 40% 3 19.12.2027 -
Hosea Michael Remo Stars Ativo 97 / 80 40% 3 18.12.2027 -
Nahuel Leivas Montevideo City Torque Ativo 97 / 114 40% 3 16.12.2027 -
Alpha Touré FC Metz Ativo 116 / 119 40% 1 16.12.2027 -
Caleb Yirenkyi Coventry City Ativo 136 / 153 40% 4 15.12.2027 -
Daniel Idoko Ikorodu City Ativo 86 / 105 40% 2 15.12.2027 -
Agustín De la Cuesta Racing Ativo 116 / 110 40% 5 14.12.2027 -
Ulises Giménez River Plate Ativo 106 / 121 40% 1 14.12.2027 -
David Damboama El-Kanemi Warriors Ativo 79 / 104 40% 3 13.12.2027 -
Gideon Manaseh Ikorodu City Ativo 94 / 105 40% 4 13.12.2027 -
Juan Camilo Córdoba Deportivo Pereira Ativo 82 / 99 40% 3 10.12.2027 -
Archie Gray Southampton Ativo 153 / 150 40% 2 10.12.2027 -
Esquerdinha Notts County Ativo 125 / 120 40% 1 10.12.2027 -
Facundo Balatti Penarol Ativo 98 / 114 40% 3 09.12.2027 -
Christos Mouzakitis Hull City Ativo 135 / 142 40% 2 08.12.2027 -
Matias Siltanen Malmo FF Ativo 132 / 142 40% 5 07.12.2027 -
Santiago Colidio Liepaja Ativo 99 / 108 40% 2 07.12.2027 -
Héctor Fort Real Sociedad Ativo 144 / 149 40% 2 07.12.2027 -
Alejandro Almaraz NK Celje Ativo 106 / 114 40% 2 05.12.2027 -
Agustín Obregón River Plate Ativo 114 / 117 40% 1 05.12.2027 -
Juan Manuel Villalba Tigre Ativo 114 / 130 40% 5 02.12.2027 -
Alan Valdelamar Independiente Medellin Ativo 96 / 103 40% 3 29.11.2027 -
Oscar Steinke Brånby Hammarby Ativo 113 / 112 40% 1 26.11.2027 -
Felipe Faúndez O'Higgins Ativo 107 / 106 40% 5 24.11.2027 -
Ignacio Fernández Boston River Ativo 92 / 109 40% 3 20.11.2027 -
Yerry Gonzalez Universitario Popayan Ativo 84 / 96 40% 1 14.11.2027 -
Marco Morigi Caracas Ativo 84 / 102 40% 4 10.11.2027 -
Lucas Camejo River Plate Ativo 86 / 92 40% 4 09.11.2027 -
Hian Rincón Once Caldas Ativo 86 / 88 40% 1 09.11.2027 -
Hugo Rojas Instituto Ativo 110 / 110 40% 4 08.11.2027 -
Pedro Soma San Diego Football Club Ativo 98 / 121 40% 1 20.10.2027 -
Sebastián Flores Ferro Carril Oeste Ativo 108 / 104 40% 2 18.10.2027 -
Esteban de Lima Tacuarembo Ativo 87 / 106 40% 3 16.10.2027 -
Onyeuche Ujunwa Ikorodu City Ativo 93 / 94 40% 2 13.10.2027 -
Santiago Murillo Alianza Petrolera Ativo 134 / 140 40% 2 12.10.2027 -
Ángel Aguayo Sol de America Ativo 94 / 97 40% 1 12.10.2027 -
Issa Yusuf Shooting Stars Ativo 94 / 88 40% 1 03.10.2027 -
Luciano Posadas Central Córdoba SdE Ativo 99 / 93 40% 1 03.10.2027 -
Mohamed Moussa Koïta Mathare United Ativo 92 / 101 40% 1 26.09.2027 -
Joel Ezra Enyimba Ativo 98 / 105 40% 1 23.09.2027 -
Diego Vargas Universidad de Concepcion Ativo 97 / 93 40% 2 17.09.2027 -
Chibueze Oputa Rangers International Ativo 93 / 84 40% 2 17.09.2027 -
Juan Diego Perdomo Depor Ativo 85 / 88 40% 1 14.09.2027 -
Tiago Gordillo San Miguel Ativo 89 / 92 40% 2 13.09.2027 -
Godwin Oham Warri Wolves Ativo 84 / 95 40% 2 13.09.2027 -
Vitor Reis Manchester City Ativo 134 / 140 40% 1 09.09.2027 -
Gadiel Paoli River Plate Ativo 98 / 102 40% 1 06.09.2027 -
Zahir Ibarra Defensa y Justicia Ativo 107 / 113 40% 1 01.09.2027 -
Kota Tawaratsumida Albirex Niigata Ativo 133 / 136 66% 1 01.06.2027 -
Jonathan Asp-Jensen Deportivo La Coruña Ativo 126 / 133 40% 8 31.05.2027 -
Samir El Mourabet RC Strasbourg Ativo 129 / 122 40% 2 31.05.2027 -
Assane Diao Como Ativo 151 / 152 40% 7 30.05.2027 -
Jesús Rodríguez Como Ativo 149 / 148 40% 2 30.05.2027 -
Romelle Donovan Brentford Ativo 123 / 124 40% 3 28.05.2027 -
Riley Owen Stevenage Ativo 101 / 116 40% 2 27.05.2027 -
Gianluca Prestianni Benfica Ativo 129 / 144 40% 3 26.05.2027 -
Alex Verón Vélez Ativo 106 / 124 40% 1 26.05.2027 -
Gorka Gorosabel Real Sociedad Ativo 102 / 109 40% 1 26.05.2027 -
Gessime Yassine RC Strasbourg Ativo 124 / 133 40% 1 22.05.2027 -
Yussif Saidu Zaragoza Ativo 129 / 130 40% 3 20.05.2027 -
Daniel Awuni Aduana Stars Ativo 104 / 99 40% 3 19.05.2027 -
Yusi Alavés Ativo 128 / 134 40% 3 18.05.2027 -
Olívio Tomé Benfica Ativo 114 / 122 40% 1 18.05.2027 -
Nikolaus Wurmbrand Girona Ativo 124 / 133 40% 1 18.05.2027 -
Jan Virgili Club Brugge Ativo 141 / 129 40% 2 13.05.2027 -
Ethan Williams Peterborough United Ativo 104 / 113 40% 2 13.05.2027 -
Sindre Walle Egeli Udinese Ativo 133 / 143 40% 1 13.05.2027 -
Oscar Schwartau Norwich City Ativo 115 / 123 40% 3 12.05.2027 -
Araphat Mohammed Ashanti Gold Ativo 93 / 121 40% 1 11.05.2027 -
Nestory Irankunda Watford Ativo 124 / 128 40% 1 11.05.2027 -
Mohamadou Kanté Crawley Town Ativo 113 / 123 40% 3 10.05.2027 -
Stevan Manuel Benfica Ativo 88 / 104 40% 1 07.05.2027 -
Kirill Glebov CSKA Moscow Ativo 119 / 128 40% 1 03.05.2027 -
Manu Rodríguez Gijón Ativo 104 / 108 40% 3 02.05.2027 -
Chemsdine Talbi Sunderland Ativo 149 / 139 40% 5 01.05.2027 -
Othmane Maamma Watford Ativo 116 / 133 40% 2 30.04.2027 -
Monty Batlhabane Polokwane City Ativo 106 / 106 40% 2 30.04.2027 -
Asanele Bonani Chippa United Ativo 87 / 100 40% 1 27.04.2027 -
Yael Padilla Tijuana Ativo 100 / 112 40% 1 25.04.2027 -
Sam Amo-Ameyaw RC Strasbourg Ativo 125 / 133 40% 1 20.04.2027 -
Mateus Mané Burnley Ativo 125 / 147 40% 2 15.04.2027 -
Lander Astiazarán Real Sociedad Ativo 95 / 110 40% 1 14.04.2027 -
Jorrel Hato Chelsea Ativo 149 / 146 40% 1 10.04.2027 -
Rocco Vata Watford Ativo 118 / 130 40% 1 07.04.2027 -
Jon Guruzeta Eibar Ativo 115 / 112 62% 1 11.01.2027 -
Brian Rodríguez Club America Ativo 130 / 122 40% 5 31.12.2026 -
Brian Gutiérrez Guadalajara Ativo 137 / 141 40% 6 31.12.2026 -
Roberto Fernández Braga Ativo 146 / 135 40% 1 29.12.2026 Mais informações
Diego Lainez Tigres Ativo 130 / 132 40% 7 27.12.2026 Observar
Jeremy Márquez Cruz Azul Ativo 136 / 113 40% 1 25.12.2026 -
Oswin Appollis Orlando Pirates Ativo 137 / 125 40% 2 23.12.2026 -
Duk Atlas Ativo 106 / 110 40% 1 18.12.2026 -
Rômulo Tigres Ativo 120 / 126 40% 1 17.12.2026 -
Omar El Hilali Espanyol Ativo 141 / 141 40% 1 17.12.2026 -
Finn Azaz Southampton Ativo 125 / 124 40% 1 16.12.2026 -
Bryan Gil Girona Ativo 145 / 147 40% 1 10.12.2026 -
Joaquín Gho Argentinos Juniors Ativo 124 / 129 40% 2 07.12.2026 -
Ezequiel Bullaude Santos Laguna Ativo 128 / 135 40% 1 07.12.2026 -
Savinho Tottenham Ativo 146 / 158 40% 2 05.12.2026 -
Carlos Álvarez Club America Ativo 130 / 150 40% 2 04.12.2026 -
Andrés Montaño Cruz Azul Ativo 105 / 109 40% 1 04.12.2026 -
Justo Giani Umraniyespor Ativo 128 / 127 40% 1 02.12.2026 -
Juan Bisanz Huracán Ativo 137 / 131 40% 3 30.11.2026 -
Pablo Torre Mallorca Ativo 139 / 145 40% 1 20.11.2026 -
Jonathan Dubasin Osasuna Ativo 131 / 140 40% 1 19.11.2026 -
Cody Gakpo Liverpool Ativo 148 / 161 40% 1 13.11.2026 -
César Araújo Tigres Ativo 135 / 138 40% 2 10.11.2026 -
Santiago Simón Toluca Ativo 110 / 109 40% 1 10.11.2026 -
Bradley Zwane SuperSport United Ativo 103 / 124 40% 1 07.11.2026 -
Ramiro Sordo Santos Laguna Ativo 111 / 120 40% 1 05.11.2026 -
Adrián Sánchez Belgrano Ativo 132 / 119 40% 1 02.11.2026 -
Aarón Molinas Defensa y Justicia Ativo 128 / 120 40% 2 01.11.2026 -
Alejandro Piedrahita Deportivo Pereira Ativo 119 / 130 40% 2 21.10.2026 -
Santiago Montiel Independiente Ativo 118 / 118 40% 1 19.10.2026 -
Junior Hernández Deportes Tolima Ativo 123 / 120 40% 1 17.10.2026 -
Rick Talleres Ativo 126 / 123 40% 1 08.10.2026 -
Alexis Cuello San Lorenzo Ativo 124 / 118 40% 1 07.10.2026 -
Omar Campos Cruz Azul Ativo 127 / 126 40% 1 07.10.2026 -
Valentín Depietri Talleres Ativo 121 / 130 40% 1 06.10.2026 -
Erik Lira Cruz Azul Ativo 147 / 146 40% 1 06.10.2026 -
César Ibáñez Huracán Ativo 119 / 118 40% 1 05.10.2026 -